createdAt,value
2022-11-29T00:02:27.619Z,55.20
2022-11-29T00:07:26.178Z,156.80
2022-11-29T00:12:26.144Z,171.30
2022-11-29T00:17:26.214Z,86.70
2022-11-29T00:22:26.187Z,80.90
2022-11-29T00:27:26.238Z,56.70
2022-11-29T00:32:26.336Z,170.80
2022-11-29T00:37:26.245Z,107.40
2022-11-29T00:42:26.258Z,199.80
2022-11-29T00:47:26.249Z,111.00
2022-11-29T00:52:26.304Z,175.10
2022-11-29T00:57:26.278Z,109.40
2022-11-29T01:02:26.746Z,68.40
2022-11-29T01:07:26.357Z,125.80
2022-11-29T01:12:26.330Z,147.50
2022-11-29T01:17:26.354Z,48.60
2022-11-29T01:22:26.447Z,66.80
2022-11-29T01:27:26.351Z,148.90
2022-11-29T01:32:26.478Z,66.70
2022-11-29T01:37:28.206Z,63.20
2022-11-29T01:42:26.502Z,63.70
2022-11-29T01:47:27.234Z,84.90
2022-11-29T01:52:29.829Z,98.80
2022-11-29T01:57:27.295Z,111.40
2022-11-29T02:02:33.195Z,179.00
2022-11-29T02:07:26.497Z,128.10
2022-11-29T02:12:36.377Z,323.60
2022-11-29T02:17:42.861Z,259.00
2022-11-29T02:22:36.400Z,149.90
2022-11-29T02:27:46.376Z,63.30
2022-11-29T02:32:46.383Z,152.80
2022-11-29T02:37:36.463Z,193.40
2022-11-29T02:42:38.428Z,75.90
2022-11-29T02:47:39.744Z,81.60
2022-11-29T02:52:43.963Z,154.50
2022-11-29T02:57:46.479Z,112.90
2022-11-29T03:02:41.807Z,136.90
2022-11-29T03:07:43.876Z,61.30
2022-11-29T03:12:37.187Z,132.60
2022-11-29T03:17:34.990Z,81.60
2022-11-29T03:22:36.552Z,58.80
2022-11-29T03:27:35.475Z,83.20
2022-11-29T03:32:33.869Z,70.10
2022-11-29T03:37:46.533Z,67.40
2022-11-29T03:42:33.229Z,119.30
2022-11-29T03:47:33.557Z,146.70
2022-11-29T03:52:37.136Z,143.90
2022-11-29T03:57:35.446Z,137.30
2022-11-29T04:02:29.428Z,81.20
2022-11-29T04:07:36.772Z,61.70
2022-11-29T04:12:36.896Z,104.10
2022-11-29T04:17:36.686Z,123.30
2022-11-29T04:22:43.886Z,102.70
2022-11-29T04:27:33.767Z,122.60
2022-11-29T04:32:46.686Z,107.90
2022-11-29T04:37:37.231Z,84.30
2022-11-29T04:42:39.966Z,143.20
2022-11-29T04:47:36.710Z,143.30
2022-11-29T04:52:45.948Z,113.30
2022-11-29T04:57:36.750Z,107.80
2022-11-29T05:02:33.436Z,92.80
2022-11-29T05:07:36.078Z,116.10
2022-11-29T05:12:34.838Z,76.70
2022-11-29T05:17:37.058Z,120.90
2022-11-29T05:22:33.093Z,81.30
2022-11-29T05:27:37.851Z,74.20
2022-11-29T05:32:34.493Z,89.90
2022-11-29T05:37:34.370Z,115.30
2022-11-29T05:42:42.884Z,92.90
2022-11-29T05:47:36.609Z,111.20
2022-11-29T05:52:46.822Z,139.90
2022-11-29T05:57:34.463Z,85.40
2022-11-29T06:02:38.763Z,102.20
2022-11-29T06:07:42.132Z,86.80
2022-11-29T06:17:44.440Z,126.50
2022-11-29T06:22:41.261Z,109.90
2022-11-29T06:27:44.835Z,90.50
2022-11-29T06:32:38.008Z,87.30
2022-11-29T06:37:32.545Z,72.40
2022-11-29T06:42:27.055Z,76.60
2022-11-29T06:47:33.555Z,81.30
2022-11-29T06:52:37.005Z,54.00
2022-11-29T06:57:38.058Z,42.70
2022-11-29T07:02:40.297Z,60.60
2022-11-29T07:07:27.373Z,67.20
2022-11-29T07:12:27.380Z,72.80
2022-11-29T07:17:38.600Z,47.10
2022-11-29T07:22:33.412Z,73.70
2022-11-29T07:27:37.537Z,54.70
2022-11-29T07:32:33.468Z,31.60
2022-11-29T07:37:37.140Z,52.00
2022-11-29T07:42:47.070Z,37.50
2022-11-29T07:47:30.077Z,43.50
2022-11-29T07:52:27.604Z,39.20
2022-11-29T07:57:27.200Z,26.40
2022-11-29T08:02:29.322Z,39.20
2022-11-29T08:07:27.306Z,39.20
2022-11-29T08:12:27.595Z,63.10
2022-11-29T08:17:27.319Z,32.20
2022-11-29T08:22:27.277Z,39.10
2022-11-29T08:27:27.703Z,66.80
2022-11-29T08:32:27.393Z,59.70
2022-11-29T08:37:27.339Z,38.50
2022-11-29T08:42:27.300Z,50.00
2022-11-29T08:47:27.359Z,36.10
2022-11-29T08:52:35.072Z,33.60
2022-11-29T08:57:40.253Z,30.50
2022-11-29T09:02:28.664Z,31.90
2022-11-29T09:07:27.495Z,20.30
2022-11-29T09:12:27.382Z,24.50
2022-11-29T09:17:27.380Z,26.00
2022-11-29T09:22:27.416Z,40.10
2022-11-29T09:27:27.400Z,27.50
2022-11-29T09:32:27.447Z,21.80
2022-11-29T09:37:27.455Z,23.80
2022-11-29T09:42:45.901Z,21.50
2022-11-29T09:47:47.383Z,18.60
2022-11-29T09:52:38.434Z,20.40
2022-11-29T09:57:29.393Z,19.60
2022-11-29T10:02:36.874Z,20.10
2022-11-29T10:07:41.889Z,14.90
2022-11-29T10:12:42.183Z,19.50
2022-11-29T10:17:35.565Z,15.70
2022-11-29T10:22:41.040Z,19.60
2022-11-29T10:27:28.786Z,15.00
2022-11-29T10:32:30.067Z,21.40
2022-11-29T10:37:28.647Z,23.90
2022-11-29T10:42:28.103Z,23.10
2022-11-29T10:47:27.720Z,23.00
2022-11-29T10:52:27.592Z,25.40
2022-11-29T10:57:27.617Z,30.40
2022-11-29T11:02:29.819Z,22.00
2022-11-29T11:07:31.058Z,22.90
2022-11-29T11:12:30.934Z,21.20
2022-11-29T11:17:30.064Z,19.30
2022-11-29T11:22:28.992Z,22.70
2022-11-29T11:27:29.995Z,22.30
2022-11-29T11:32:27.824Z,21.10
2022-11-29T11:37:29.780Z,20.30
2022-11-29T11:42:31.749Z,24.80
2022-11-29T11:47:30.699Z,26.40
2022-11-29T11:52:40.708Z,20.00
2022-11-29T11:57:29.316Z,23.30
2022-11-29T12:02:36.360Z,33.20
2022-11-29T12:08:06.050Z,22.80
2022-11-29T12:12:39.750Z,24.50
2022-11-29T12:17:35.259Z,28.00
2022-11-29T12:22:36.429Z,26.90
2022-11-29T12:27:29.354Z,20.20
2022-11-29T12:32:47.745Z,25.10
2022-11-29T12:37:46.920Z,24.70
2022-11-29T12:42:36.289Z,28.70
2022-11-29T12:47:38.052Z,26.10
2022-11-29T12:52:35.832Z,28.50
2022-11-29T12:57:47.780Z,25.40
2022-11-29T13:02:38.953Z,26.70
2022-11-29T13:07:29.960Z,28.20
2022-11-29T13:12:40.736Z,30.90
2022-11-29T13:17:34.451Z,35.80
2022-11-29T13:22:37.221Z,31.80
2022-11-29T13:27:32.185Z,32.00
2022-11-29T13:32:34.477Z,33.90
2022-11-29T13:37:36.360Z,34.70
2022-11-29T13:42:33.965Z,31.50
2022-11-29T13:47:28.453Z,37.30
2022-11-29T13:52:40.586Z,30.20
2022-11-29T13:57:28.069Z,31.00
2022-11-29T14:02:30.554Z,27.90
2022-11-29T14:07:28.412Z,35.10
2022-11-29T14:12:30.071Z,33.90
2022-11-29T14:17:39.039Z,29.70
2022-11-29T14:22:28.127Z,30.60
2022-11-29T14:27:28.066Z,27.30
2022-11-29T14:32:44.423Z,29.50
2022-11-29T14:37:41.951Z,34.60
2022-11-29T14:42:29.884Z,28.80
2022-11-29T14:47:36.705Z,30.70
2022-11-29T14:52:31.191Z,29.00
2022-11-29T14:57:48.106Z,31.30
2022-11-29T15:02:40.513Z,31.80
2022-11-29T15:07:31.565Z,29.30
2022-11-29T15:12:34.725Z,31.10
2022-11-29T15:17:45.535Z,32.10
2022-11-29T15:22:41.655Z,28.60
2022-11-29T15:27:28.263Z,33.10
2022-11-29T15:32:30.552Z,35.40
2022-11-29T15:37:32.493Z,33.20
2022-11-29T15:42:39.886Z,31.60
2022-11-29T15:47:28.269Z,35.20
2022-11-29T15:52:34.035Z,26.90
2022-11-29T15:57:35.578Z,37.40
2022-11-29T16:02:33.186Z,43.10
2022-11-29T16:07:29.906Z,43.80
2022-11-29T16:12:28.518Z,50.30
2022-11-29T16:17:31.508Z,54.40
2022-11-29T16:22:28.364Z,39.80
2022-11-29T16:27:31.111Z,80.90
2022-11-29T16:32:29.840Z,60.90
2022-11-29T16:37:34.918Z,59.20
2022-11-29T16:42:30.306Z,47.80
2022-11-29T16:47:31.578Z,47.10
2022-11-29T16:52:30.699Z,48.10
2022-11-29T16:57:29.160Z,51.80
2022-11-29T17:02:28.993Z,42.50
2022-11-29T17:07:32.486Z,58.60
2022-11-29T17:12:28.541Z,51.00
2022-11-29T17:17:28.459Z,49.00
2022-11-29T17:22:28.484Z,52.80
2022-11-29T17:27:28.553Z,49.60
2022-11-29T17:32:28.497Z,77.50
2022-11-29T17:37:29.451Z,216.70
2022-11-29T17:42:28.516Z,201.80
2022-11-29T17:47:28.513Z,163.50
2022-11-29T17:52:28.564Z,223.10
2022-11-29T17:57:28.548Z,109.20
2022-11-29T18:02:29.156Z,114.10
2022-11-29T18:07:28.632Z,144.60
2022-11-29T18:12:28.581Z,124.40
2022-11-29T18:17:28.633Z,168.90
2022-11-29T18:22:28.598Z,147.10
2022-11-29T18:27:28.629Z,190.50
2022-11-29T18:32:29.242Z,182.80
2022-11-29T18:38:06.493Z,184.90
2022-11-29T18:42:28.660Z,172.20
2022-11-29T18:47:28.658Z,142.80
2022-11-29T18:52:28.693Z,119.70
2022-11-29T18:57:28.715Z,129.50
2022-11-29T19:02:29.263Z,122.10
2022-11-29T19:07:30.351Z,75.80
2022-11-29T19:12:28.725Z,167.80
2022-11-29T19:17:28.901Z,170.10
2022-11-29T19:22:29.715Z,77.50
2022-11-29T19:27:28.788Z,63.10
2022-11-29T19:32:28.763Z,69.00
2022-11-29T19:37:28.763Z,82.10
2022-11-29T19:42:28.792Z,37.20
2022-11-29T19:47:28.794Z,35.80
2022-11-29T19:52:28.809Z,35.80
2022-11-29T19:57:28.828Z,29.00
2022-11-29T20:02:29.543Z,33.80
2022-11-29T20:07:28.871Z,32.00
2022-11-29T20:12:29.547Z,31.70
2022-11-29T20:17:28.943Z,29.80
2022-11-29T20:22:28.853Z,28.00
2022-11-29T20:27:28.913Z,31.00
2022-11-29T20:32:29.044Z,33.20
2022-11-29T20:37:46.105Z,27.20
2022-11-29T20:42:35.338Z,30.50
2022-11-29T20:47:39.785Z,25.90
2022-11-29T20:52:46.391Z,22.70
2022-11-29T20:57:28.958Z,22.10
2022-11-29T21:02:30.206Z,22.90
2022-11-29T21:07:29.204Z,21.80
2022-11-29T21:12:29.653Z,20.60
2022-11-29T21:17:33.480Z,20.50
2022-11-29T21:22:42.024Z,20.00
2022-11-29T21:27:32.027Z,31.80
2022-11-29T21:32:29.242Z,20.60
2022-11-29T21:37:29.995Z,17.40
2022-11-29T21:42:29.162Z,23.00
2022-11-29T21:47:29.123Z,21.60
2022-11-29T21:52:29.077Z,23.20
2022-11-29T21:57:29.165Z,18.50
2022-11-29T22:02:29.808Z,21.60
2022-11-29T22:07:29.173Z,23.80
2022-11-29T22:12:34.519Z,19.70
2022-11-29T22:17:29.147Z,16.10
2022-11-29T22:22:29.134Z,18.70
2022-11-29T22:27:29.168Z,18.30
2022-11-29T22:32:29.281Z,16.40
2022-11-29T22:37:29.203Z,14.70
2022-11-29T22:42:29.197Z,14.70
2022-11-29T22:47:29.220Z,14.10
2022-11-29T22:52:29.211Z,12.80
2022-11-29T22:57:29.229Z,16.30
2022-11-29T23:02:29.938Z,13.80
2022-11-29T23:07:29.324Z,14.30
2022-11-29T23:12:29.255Z,13.40
2022-11-29T23:17:29.337Z,13.10
2022-11-29T23:22:29.265Z,13.70
2022-11-29T23:27:29.308Z,12.30
2022-11-29T23:32:29.303Z,14.20
2022-11-29T23:37:29.331Z,14.60
2022-11-29T23:42:29.337Z,14.20
2022-11-29T23:47:29.337Z,14.70
2022-11-29T23:52:29.362Z,14.20
2022-11-29T23:57:30.031Z,14.80
